Time;durP1;ratioP1;P1;durP2;ratioP2;P2;SDS_P1;SDS_P2;PMS_P1;PMS_P2;Temp;Humidity;BMP_temperature;BMP_pressure;BME280_temperature;BME280_humidity;BME280_pressure;Samples;Min_cycle;Max_cycle;Signal;HPM_P1;HPM_P2
2021/04/26 00:00:08;;;;;;;9.02;3.50;;;24.40;90.60;;;;;;5088812;28;20357;-78
2021/04/26 00:02:35;;;;;;;7.50;3.90;;;24.10;90.80;;;;;;5089023;28;20731;-78
2021/04/26 00:05:03;;;;;;;8.87;3.90;;;23.50;92.20;;;;;;5087165;28;20383;-78
2021/04/26 00:07:30;;;;;;;7.68;3.97;;;22.40;93.00;;;;;;5088250;28;20385;-78
2021/04/26 00:09:56;;;;;;;11.45;4.75;;;21.60;95.00;;;;;;5088830;28;20364;-78
2021/04/26 00:12:23;;;;;;;7.38;3.70;;;20.60;96.40;;;;;;5088286;28;20820;-78
2021/04/26 00:14:51;;;;;;;5.50;3.50;;;20.20;98.40;;;;;;5088064;28;20473;-77
2021/04/26 00:17:19;;;;;;;9.47;3.37;;;20.00;99.20;;;;;;5088656;28;20384;-77
2021/04/26 00:19:46;;;;;;;8.27;3.42;;;19.80;99.30;;;;;;5088187;28;20383;-77
2021/04/26 00:22:13;;;;;;;8.70;3.65;;;19.60;98.60;;;;;;5088227;28;20418;-78
2021/04/26 00:24:41;;;;;;;8.93;3.70;;;19.40;99.20;;;;;;5086747;28;20734;-78
2021/04/26 00:27:08;;;;;;;10.23;3.30;;;19.30;99.90;;;;;;5088432;28;20502;-77
2021/04/26 00:29:35;;;;;;;6.68;3.25;;;19.20;99.90;;;;;;5088242;28;20380;-78
2021/04/26 00:32:02;;;;;;;6.25;3.58;;;19.20;99.90;;;;;;5088999;28;20393;-77
2021/04/26 00:34:29;;;;;;;6.05;3.10;;;19.10;99.90;;;;;;5092600;28;20429;-77
2021/04/26 00:36:56;;;;;;;7.38;2.90;;;19.00;99.90;;;;;;5092520;28;20794;-77
2021/04/26 00:39:23;;;;;;;8.35;3.22;;;19.10;99.90;;;;;;5092690;28;20360;-77
2021/04/26 00:41:50;;;;;;;4.80;3.25;;;19.00;99.90;;;;;;5092401;28;20417;-77
2021/04/26 00:44:17;;;;;;;8.10;3.60;;;19.00;99.90;;;;;;5092514;28;20796;-77
2021/04/26 00:46:44;;;;;;;8.32;3.80;;;19.00;99.90;;;;;;5092432;28;20421;-77
2021/04/26 00:49:11;;;;;;;6.90;3.22;;;18.90;99.90;;;;;;5092045;28;20372;-78
2021/04/26 00:51:38;;;;;;;7.28;3.13;;;18.80;99.90;;;;;;5091763;28;20387;-77
2021/04/26 00:54:06;;;;;;;4.45;3.00;;;18.60;99.90;;;;;;5090639;28;20394;-77
2021/04/26 00:56:33;;;;;;;6.68;3.47;;;18.60;99.90;;;;;;5092209;28;20438;-77
2021/04/26 00:59:00;;;;;;;7.20;3.25;;;18.60;99.90;;;;;;5091772;28;20460;-77
2021/04/26 01:01:27;;;;;;;6.82;3.60;;;19.00;99.90;;;;;;5091719;28;20712;-76
2021/04/26 01:03:54;;;;;;;7.40;3.80;;;19.30;99.90;;;;;;5094599;28;20394;-77
2021/04/26 01:06:21;;;;;;;9.30;3.50;;;19.20;99.90;;;;;;5095550;28;20470;-77
2021/04/26 01:08:48;;;;;;;6.05;3.30;;;19.20;99.90;;;;;;5092057;28;20403;-77
2021/04/26 01:11:16;;;;;;;9.05;3.70;;;19.20;99.90;;;;;;5091532;28;20388;-77
2021/04/26 01:14:10;;;;;;;6.83;3.40;;;19.10;99.90;;;;;;5091732;28;20396;-77
2021/04/26 01:16:59;;;;;;;7.10;3.42;;;19.20;99.90;;;;;;5091589;28;20457;-77
2021/04/26 01:19:56;;;;;;;6.57;3.55;;;19.10;99.90;;;;;;5091805;28;20380;-77
2021/04/26 01:22:50;;;;;;;6.13;3.45;;;18.80;99.90;;;;;;5091159;28;20391;-77
2021/04/26 01:25:22;;;;;;;8.30;3.90;;;18.70;99.90;;;;;;5090654;28;20377;-76
2021/04/26 01:28:16;;;;;;;7.47;3.40;;;18.70;99.90;;;;;;5091602;28;20799;-77
2021/04/26 01:30:58;;;;;;;7.85;3.55;;;18.80;99.90;;;;;;5091702;28;20364;-77
2021/04/26 01:33:34;;;;;;;6.22;3.55;;;18.60;99.90;;;;;;5091691;28;20727;-76
2021/04/26 01:36:05;;;;;;;6.57;3.50;;;18.50;99.90;;;;;;5091385;28;20466;-77
2021/04/26 01:38:45;;;;;;;7.53;3.47;;;18.60;99.90;;;;;;5091585;28;20379;-77
2021/04/26 01:41:13;;;;;;;6.85;3.60;;;18.60;99.90;;;;;;5091207;28;20381;-77
2021/04/26 01:43:43;;;;;;;7.38;3.60;;;18.80;99.90;;;;;;5090164;28;20379;-77
2021/04/26 01:46:12;;;;;;;8.38;3.38;;;19.00;99.90;;;;;;5091377;28;20427;-77
2021/04/26 01:48:42;;;;;;;7.72;3.38;;;19.20;99.90;;;;;;5090811;28;20388;-77
2021/04/26 01:51:11;;;;;;;5.13;3.10;;;19.30;99.90;;;;;;5089426;28;20388;-77
2021/04/26 01:53:41;;;;;;;5.05;2.70;;;19.50;99.30;;;;;;5090883;28;20380;-78
2021/04/26 01:56:11;;;;;;;4.53;3.15;;;19.50;99.70;;;;;;5091568;28;20368;-78
2021/04/26 01:58:43;;;;;;;7.70;3.63;;;19.50;99.10;;;;;;5093035;28;20384;-78
2021/04/26 02:01:15;;;;;;;6.10;2.70;;;19.50;99.70;;;;;;5111576;28;20460;-78
2021/04/26 02:04:03;;;;;;;6.57;2.88;;;19.50;98.30;;;;;;5111183;28;20358;-77
2021/04/26 02:06:32;;;;;;;4.37;2.70;;;19.50;98.90;;;;;;5100032;28;20954;-78
2021/04/26 02:09:01;;;;;;;4.85;2.67;;;19.60;97.80;;;;;;5090658;28;20379;-78
2021/04/26 02:11:29;;;;;;;3.80;2.97;;;19.70;96.20;;;;;;5090887;28;20939;-78
2021/04/26 02:13:56;;;;;;;6.67;3.10;;;19.70;97.70;;;;;;5090639;28;20383;-77
2021/04/26 02:16:24;;;;;;;4.68;2.90;;;19.80;98.70;;;;;;5090611;28;20372;-78
2021/04/26 02:18:51;;;;;;;5.63;2.83;;;20.00;98.50;;;;;;5090089;28;20373;-78
2021/04/26 02:21:18;;;;;;;4.47;2.80;;;20.10;97.80;;;;;;5070649;28;20367;-77
2021/04/26 02:23:45;;;;;;;8.30;3.10;;;20.20;96.80;;;;;;5069985;28;20374;-78
2021/04/26 02:26:12;;;;;;;5.22;2.78;;;20.20;95.80;;;;;;5070614;28;20892;-78
2021/04/26 02:28:39;;;;;;;5.30;2.77;;;19.80;96.40;;;;;;5070274;28;20366;-77
2021/04/26 02:31:07;;;;;;;5.50;3.00;;;19.50;96.80;;;;;;5069974;28;20370;-78
2021/04/26 02:33:39;;;;;;;3.83;2.50;;;19.30;97.80;;;;;;5079473;28;20399;-77
2021/04/26 02:36:34;;;;;;;5.60;2.63;;;18.90;98.10;;;;;;5088353;28;20838;-78
2021/04/26 02:39:07;;;;;;;6.35;2.33;;;18.80;98.20;;;;;;5087762;28;20388;-78
2021/04/26 02:41:39;;;;;;;6.40;2.83;;;18.60;98.30;;;;;;5089959;28;20376;-78
2021/04/26 02:44:14;;;;;;;4.68;2.70;;;18.50;98.40;;;;;;5089708;28;20742;-78
2021/04/26 02:46:43;;;;;;;4.83;2.90;;;18.50;98.60;;;;;;5089585;28;20841;-78
2021/04/26 02:49:10;;;;;;;7.47;2.92;;;18.50;99.00;;;;;;5087818;28;20392;-78
2021/04/26 02:51:39;;;;;;;5.65;2.65;;;18.50;97.90;;;;;;5089290;28;20427;-77
2021/04/26 02:54:07;;;;;;;4.70;2.70;;;18.70;97.80;;;;;;5095394;28;20385;-77
2021/04/26 02:56:39;;;;;;;4.60;2.53;;;18.80;97.90;;;;;;5089643;28;20386;-78
2021/04/26 02:59:08;;;;;;;6.35;2.75;;;19.10;97.80;;;;;;5089081;28;20446;-78
2021/04/26 03:01:36;;;;;;;5.15;2.40;;;19.30;98.00;;;;;;5089184;28;20460;-78
2021/04/26 03:04:05;;;;;;;6.10;2.45;;;19.50;97.40;;;;;;5089070;28;20380;-78
2021/04/26 03:06:33;;;;;;;3.78;2.20;;;19.80;96.80;;;;;;5083044;28;20497;-78
2021/04/26 03:09:01;;;;;;;6.85;2.75;;;19.90;95.80;;;;;;5084368;28;20387;-77
2021/04/26 03:11:30;;;;;;;3.08;2.10;;;20.00;95.00;;;;;;5089188;28;20649;-76
2021/04/26 03:13:58;;;;;;;4.25;2.47;;;20.10;95.60;;;;;;5089633;28;20365;-77
2021/04/26 03:16:27;;;;;;;3.97;2.70;;;20.10;93.90;;;;;;5088803;28;20388;-77
2021/04/26 03:18:55;;;;;;;6.72;2.65;;;20.00;94.30;;;;;;5089619;28;20396;-78
2021/04/26 03:21:23;;;;;;;4.20;2.40;;;19.90;95.10;;;;;;5089355;28;20425;-77
2021/04/26 03:23:50;;;;;;;4.72;2.60;;;19.90;95.50;;;;;;5087553;28;20412;-77
2021/04/26 03:26:18;;;;;;;7.05;2.78;;;20.10;95.10;;;;;;5089320;28;20483;-78
2021/04/26 03:28:46;;;;;;;4.88;2.38;;;20.10;95.10;;;;;;5088466;28;20387;-77
2021/04/26 03:31:13;;;;;;;3.53;2.22;;;20.30;94.80;;;;;;5089342;28;20373;-77
2021/04/26 03:33:41;;;;;;;3.65;2.10;;;20.40;93.20;;;;;;5088473;28;20381;-77
2021/04/26 03:36:09;;;;;;;4.88;2.00;;;20.20;93.20;;;;;;5088964;28;20895;-77
2021/04/26 03:38:38;;;;;;;3.85;2.00;;;20.30;94.10;;;;;;5089185;28;20724;-77
2021/04/26 03:41:05;;;;;;;4.68;2.00;;;20.30;93.30;;;;;;5089030;28;20852;-77
2021/04/26 03:43:32;;;;;;;4.50;2.40;;;20.10;92.80;;;;;;5088972;28;20365;-78
2021/04/26 03:46:00;;;;;;;4.75;2.20;;;20.10;93.30;;;;;;5088370;28;20442;-77
2021/04/26 03:48:27;;;;;;;3.83;2.30;;;19.90;94.40;;;;;;5088942;28;20388;-77
2021/04/26 03:50:54;;;;;;;5.72;1.92;;;19.80;94.70;;;;;;5088863;28;20384;-78
2021/04/26 03:53:21;;;;;;;4.78;2.17;;;19.90;93.80;;;;;;5068373;28;20400;-77
2021/04/26 03:55:48;;;;;;;5.55;1.70;;;20.10;93.70;;;;;;5069148;28;20458;-77
2021/04/26 03:58:15;;;;;;;5.63;2.13;;;20.20;93.10;;;;;;5068606;28;20733;-78
2021/04/26 04:00:42;;;;;;;3.85;1.80;;;20.30;92.30;;;;;;5068534;28;20883;-77
2021/04/26 04:03:10;;;;;;;3.65;1.80;;;20.40;92.40;;;;;;5067780;28;20444;-77
2021/04/26 04:05:38;;;;;;;5.30;2.10;;;20.30;92.80;;;;;;5068576;28;20490;-78
2021/04/26 04:08:06;;;;;;;3.28;1.95;;;20.20;92.70;;;;;;5078932;28;20376;-78
2021/04/26 04:10:33;;;;;;;4.78;2.20;;;20.00;92.10;;;;;;5088830;28;20388;-77
2021/04/26 04:13:01;;;;;;;9.63;2.60;;;19.80;94.50;;;;;;5087798;28;20376;-77
2021/04/26 04:15:28;;;;;;;8.00;2.42;;;19.70;96.80;;;;;;5088637;28;20379;-78
2021/04/26 04:17:57;;;;;;;6.20;2.70;;;19.60;98.10;;;;;;5088473;28;20380;-77
2021/04/26 04:20:24;;;;;;;4.60;2.00;;;19.60;98.90;;;;;;5088612;28;20373;-77
2021/04/26 04:22:51;;;;;;;6.73;2.40;;;19.50;98.70;;;;;;5088639;28;20380;-78
2021/04/26 04:25:18;;;;;;;8.73;2.67;;;19.50;98.90;;;;;;5098679;28;20386;-78
2021/04/26 04:27:45;;;;;;;7.20;2.20;;;19.50;98.70;;;;;;5088206;28;20399;-77
2021/04/26 04:30:14;;;;;;;6.72;2.50;;;19.50;99.40;;;;;;5088221;28;20373;-78
2021/04/26 04:32:42;;;;;;;5.70;2.30;;;19.60;98.90;;;;;;5088111;28;20393;-78
2021/04/26 04:35:10;;;;;;;7.85;2.78;;;19.60;98.30;;;;;;5088240;28;20372;-79
2021/04/26 04:37:37;;;;;;;6.38;2.45;;;19.60;98.90;;;;;;5088334;28;20458;-78
2021/04/26 04:40:06;;;;;;;5.35;2.42;;;19.50;99.00;;;;;;5087538;28;20364;-78
2021/04/26 04:42:33;;;;;;;5.55;2.10;;;19.40;99.30;;;;;;5088341;28;20457;-78
2021/04/26 04:45:00;;;;;;;5.85;2.20;;;19.30;99.30;;;;;;5088649;28;20431;-78
2021/04/26 04:47:27;;;;;;;5.97;2.10;;;19.20;99.10;;;;;;5088352;28;20404;-78
2021/04/26 04:49:54;;;;;;;8.75;2.42;;;19.10;99.40;;;;;;5088229;28;20393;-78
2021/04/26 04:52:21;;;;;;;4.03;2.30;;;19.10;99.20;;;;;;5088320;28;20384;-77
2021/04/26 04:54:48;;;;;;;8.68;2.40;;;19.10;99.20;;;;;;5088336;28;20882;-78
2021/04/26 04:57:15;;;;;;;5.28;2.05;;;19.00;99.80;;;;;;5088384;28;20882;-78
2021/04/26 04:59:42;;;;;;;5.07;2.20;;;19.00;98.70;;;;;;5086598;28;20376;-77
2021/04/26 05:02:09;;;;;;;6.38;2.40;;;19.00;99.60;;;;;;5087963;28;20383;-78
2021/04/26 05:04:36;;;;;;;5.78;1.98;;;19.00;99.30;;;;;;5086352;28;20468;-79
2021/04/26 05:07:03;;;;;;;6.15;2.20;;;18.90;99.10;;;;;;5088302;28;20495;-77
2021/04/26 05:09:30;;;;;;;8.60;2.60;;;18.90;99.60;;;;;;5088045;28;20364;-77
2021/04/26 05:11:59;;;;;;;5.68;1.98;;;19.00;98.90;;;;;;5087968;28;20536;-77
2021/04/26 05:14:27;;;;;;;3.88;2.15;;;19.00;99.50;;;;;;5087940;28;20510;-77
2021/04/26 05:16:56;;;;;;;5.47;2.05;;;19.00;99.00;;;;;;5088110;28;20402;-77
2021/04/26 05:19:23;;;;;;;6.00;2.30;;;19.00;98.70;;;;;;5096761;28;20430;-76
2021/04/26 05:21:50;;;;;;;5.20;2.30;;;19.10;99.20;;;;;;5091538;28;20781;-77
2021/04/26 05:24:17;;;;;;;6.68;2.15;;;19.00;99.70;;;;;;5091622;28;20448;-77
2021/04/26 05:26:44;;;;;;;5.00;2.05;;;19.00;99.90;;;;;;5091709;28;20388;-77
2021/04/26 05:29:11;;;;;;;6.63;2.30;;;19.00;99.90;;;;;;5091569;28;20882;-78
2021/04/26 05:31:39;;;;;;;6.63;2.40;;;18.90;99.90;;;;;;5091528;28;20383;-78
2021/04/26 05:34:06;;;;;;;5.55;2.20;;;18.90;99.90;;;;;;5091540;28;20372;-79
2021/04/26 05:36:33;;;;;;;7.40;2.40;;;18.80;99.90;;;;;;5091025;28;20471;-78
2021/04/26 05:39:00;;;;;;;7.35;2.30;;;18.70;99.90;;;;;;5090084;28;20424;-78
2021/04/26 05:41:28;;;;;;;8.23;2.28;;;18.70;99.90;;;;;;5090042;28;20416;-77
2021/04/26 05:43:55;;;;;;;5.65;2.22;;;18.80;99.90;;;;;;5089985;28;20376;-77
2021/04/26 05:46:22;;;;;;;7.03;2.60;;;18.70;99.90;;;;;;5091126;28;20415;-78
2021/04/26 05:48:50;;;;;;;6.03;2.20;;;18.70;99.90;;;;;;5090995;28;20368;-78
2021/04/26 05:51:17;;;;;;;9.77;2.25;;;18.70;99.90;;;;;;5090691;28;20435;-77
2021/04/26 05:53:44;;;;;;;4.50;2.05;;;18.60;99.90;;;;;;5090841;28;20442;-78
2021/04/26 05:56:11;;;;;;;8.27;2.10;;;18.60;99.90;;;;;;5091220;28;20379;-78
2021/04/26 05:58:38;;;;;;;8.82;2.25;;;18.50;99.90;;;;;;5090722;28;20388;-78
2021/04/26 06:01:05;;;;;;;7.25;2.28;;;18.50;99.90;;;;;;5091318;28;20357;-78
2021/04/26 06:03:32;;;;;;;5.20;2.00;;;18.40;99.90;;;;;;5090972;28;20365;-77
2021/04/26 06:05:59;;;;;;;3.80;1.90;;;18.40;99.90;;;;;;5090873;28;20404;-78
2021/04/26 06:08:27;;;;;;;5.82;2.20;;;18.40;99.90;;;;;;5090598;28;20380;-78
2021/04/26 06:10:54;;;;;;;5.13;1.98;;;18.40;99.90;;;;;;5090749;28;20453;-78
2021/04/26 06:13:21;;;;;;;7.82;2.50;;;18.30;99.90;;;;;;5090775;28;20521;-78
2021/04/26 06:15:48;;;;;;;6.50;2.08;;;18.30;99.90;;;;;;5090600;28;20433;-78
2021/04/26 06:18:17;;;;;;;5.30;2.73;;;18.20;99.90;;;;;;5091220;28;20452;-78
2021/04/26 06:20:46;;;;;;;4.82;2.15;;;18.20;99.90;;;;;;5091201;28;20522;-78
2021/04/26 06:23:13;;;;;;;9.48;2.53;;;18.20;99.90;;;;;;5090571;28;20380;-78
2021/04/26 06:25:40;;;;;;;4.63;2.70;;;18.20;99.90;;;;;;5090883;28;20417;-78
2021/04/26 06:28:14;;;;;;;5.30;2.67;;;18.10;99.90;;;;;;5090411;28;20416;-79
2021/04/26 06:30:43;;;;;;;5.68;2.47;;;18.00;99.90;;;;;;5090031;28;20421;-78
2021/04/26 06:33:15;;;;;;;6.47;2.28;;;18.00;99.90;;;;;;5090632;28;20372;-78
2021/04/26 06:35:47;;;;;;;5.93;2.50;;;17.90;99.90;;;;;;5089941;28;20372;-78
2021/04/26 06:38:14;;;;;;;7.07;2.38;;;17.90;99.90;;;;;;5089657;28;20787;-79
2021/04/26 06:40:41;;;;;;;7.00;2.30;;;17.80;99.90;;;;;;5090373;28;20859;-77
2021/04/26 06:43:10;;;;;;;5.25;2.20;;;17.80;99.90;;;;;;5089968;28;20396;-76
2021/04/26 06:45:39;;;;;;;7.03;2.10;;;17.70;99.90;;;;;;5089844;28;20391;-77
2021/04/26 06:48:07;;;;;;;5.28;2.08;;;17.60;99.90;;;;;;5090157;28;20392;-78
2021/04/26 06:50:34;;;;;;;5.47;2.40;;;17.60;99.90;;;;;;5089901;28;20527;-77
2021/04/26 06:53:01;;;;;;;4.93;2.20;;;17.50;99.90;;;;;;5089837;28;20384;-77
2021/04/26 06:55:29;;;;;;;5.60;1.87;;;17.40;99.90;;;;;;5090307;28;20377;-78
2021/04/26 06:57:55;;;;;;;3.72;2.00;;;17.30;99.90;;;;;;5090145;28;20394;-78
2021/04/26 07:00:24;;;;;;;6.30;2.20;;;17.20;99.90;;;;;;5088383;28;20868;-78
2021/04/26 07:02:51;;;;;;;4.75;2.00;;;17.20;99.90;;;;;;5089920;28;20463;-78
2021/04/26 07:05:19;;;;;;;5.72;1.75;;;17.20;99.90;;;;;;5091083;28;20369;-78
2021/04/26 07:07:48;;;;;;;4.63;2.03;;;17.20;99.90;;;;;;5089241;28;20851;-78
2021/04/26 07:10:16;;;;;;;6.13;2.15;;;17.20;99.90;;;;;;5096708;28;20704;-78
2021/04/26 07:12:43;;;;;;;6.20;2.10;;;17.10;99.90;;;;;;5089704;28;20413;-78
2021/04/26 07:15:14;;;;;;;5.43;2.65;;;17.10;99.90;;;;;;5089226;28;20385;-77
2021/04/26 07:17:42;;;;;;;7.13;2.60;;;17.00;99.90;;;;;;5089431;28;20882;-78
2021/04/26 07:20:11;;;;;;;5.50;2.50;;;16.90;99.90;;;;;;5089375;28;20460;-78
2021/04/26 07:22:39;;;;;;;7.60;2.35;;;16.80;99.90;;;;;;5088030;28;20577;-78
2021/04/26 07:25:06;;;;;;;4.25;2.20;;;16.80;99.90;;;;;;5086148;28;20481;-81
2021/04/26 07:27:34;;;;;;;5.93;2.35;;;16.70;99.90;;;;;;5086230;28;20408;-78
2021/04/26 07:30:01;;;;;;;4.22;2.20;;;16.60;99.90;;;;;;5084379;28;20411;-79
2021/04/26 07:32:28;;;;;;;6.93;2.17;;;16.50;99.90;;;;;;5087340;28;20380;-78
2021/04/26 07:34:55;;;;;;;5.80;2.33;;;16.50;99.90;;;;;;5084785;28;20396;-78
2021/04/26 07:37:22;;;;;;;6.00;2.10;;;16.30;99.90;;;;;;5087828;28;20453;-78
2021/04/26 07:39:49;;;;;;;6.10;2.38;;;16.30;99.90;;;;;;5079763;28;20473;-78
2021/04/26 07:42:16;;;;;;;8.05;2.35;;;16.20;99.90;;;;;;5081177;28;20398;-79
2021/04/26 07:44:43;;;;;;;7.22;2.28;;;16.20;99.90;;;;;;5088874;28;20376;-79
2021/04/26 07:47:10;;;;;;;4.65;2.15;;;16.20;99.90;;;;;;5089351;28;20447;-80
2021/04/26 07:49:37;;;;;;;5.40;1.90;;;16.10;99.90;;;;;;5088731;28;20441;-79
2021/04/26 07:52:04;;;;;;;5.27;2.50;;;16.10;99.90;;;;;;5088844;28;20851;-79
2021/04/26 07:54:32;;;;;;;6.30;2.45;;;16.10;99.90;;;;;;5069166;28;20375;-79
2021/04/26 07:56:59;;;;;;;7.30;2.30;;;16.00;99.90;;;;;;5081393;28;20388;-79
2021/04/26 07:59:26;;;;;;;4.47;2.47;;;16.00;99.90;;;;;;5088157;28;20527;-78
2021/04/26 08:01:53;;;;;;;7.53;2.77;;;15.90;99.90;;;;;;5085078;28;20400;-79
2021/04/26 08:04:20;;;;;;;5.60;2.40;;;15.80;99.90;;;;;;5088915;28;20390;-78
2021/04/26 08:06:47;;;;;;;6.60;2.38;;;15.70;99.90;;;;;;5088908;28;20911;-79
2021/04/26 08:09:14;;;;;;;7.40;2.47;;;15.60;99.90;;;;;;5087379;28;20395;-79
2021/04/26 08:11:41;;;;;;;4.63;2.10;;;15.60;99.90;;;;;;5089223;28;20962;-78
2021/04/26 08:14:08;;;;;;;6.03;2.22;;;15.50;99.90;;;;;;5088521;28;20767;-79
2021/04/26 08:16:35;;;;;;;5.72;2.50;;;15.40;99.90;;;;;;5076618;28;20390;-78
2021/04/26 08:19:02;;;;;;;7.65;2.42;;;15.30;99.90;;;;;;5068576;28;20379;-78
2021/04/26 08:21:29;;;;;;;6.45;2.50;;;15.20;99.90;;;;;;5079287;28;20392;-78
2021/04/26 08:23:57;;;;;;;6.00;2.20;;;15.20;99.90;;;;;;5074074;28;20401;-78
2021/04/26 08:26:27;;;;;;;4.38;2.10;;;15.10;99.90;;;;;;5069055;28;20408;-77
2021/04/26 08:28:54;;;;;;;6.05;3.55;;;15.10;99.90;;;;;;5068560;28;20420;-77
2021/04/26 08:31:21;;;;;;;5.75;3.20;;;15.10;99.90;;;;;;5069959;28;20386;-78
2021/04/26 08:33:48;;;;;;;8.50;3.67;;;15.00;99.90;;;;;;5081409;28;20384;-78
2021/04/26 08:36:15;;;;;;;6.55;4.07;;;15.00;99.90;;;;;;5086755;28;20368;-78
2021/04/26 08:38:42;;;;;;;5.65;3.00;;;14.90;99.90;;;;;;5071692;28;20465;-79
2021/04/26 08:41:16;;;;;;;6.55;3.25;;;14.90;99.90;;;;;;5082591;28;20914;-79
2021/04/26 08:43:45;;;;;;;5.68;2.63;;;14.90;99.90;;;;;;5076362;28;20395;-78
2021/04/26 08:46:12;;;;;;;9.23;3.17;;;14.80;99.90;;;;;;5085038;28;20411;-79
2021/04/26 08:48:40;;;;;;;6.57;2.58;;;14.80;99.90;;;;;;5088336;28;20463;-79
2021/04/26 08:51:07;;;;;;;7.05;2.88;;;14.80;99.90;;;;;;5087260;28;20408;-79
2021/04/26 08:53:35;;;;;;;6.40;2.80;;;14.80;99.90;;;;;;5088595;28;20475;-79
2021/04/26 08:56:04;;;;;;;4.70;2.67;;;14.80;99.90;;;;;;5091403;28;20448;-78
2021/04/26 08:58:32;;;;;;;6.30;2.70;;;14.70;99.90;;;;;;5091590;28;20420;-79
2021/04/26 09:00:59;;;;;;;6.38;2.60;;;14.70;99.90;;;;;;5088219;28;20449;-78
2021/04/26 09:03:36;;;;;;;4.57;2.53;;;14.70;99.90;;;;;;5091512;28;20388;-78
2021/04/26 09:06:07;;;;;;;7.30;2.58;;;14.70;99.90;;;;;;5089916;28;20395;-79
2021/04/26 09:08:34;;;;;;;6.80;3.10;;;14.60;99.90;;;;;;5088439;28;20404;-79
2021/04/26 09:11:11;;;;;;;7.88;2.67;;;14.60;99.90;;;;;;5090858;28;20373;-79
2021/04/26 09:13:42;;;;;;;5.95;2.90;;;14.50;99.90;;;;;;5089815;28;20396;-79
2021/04/26 09:16:22;;;;;;;7.28;2.78;;;14.60;99.90;;;;;;5091545;28;20380;-79
2021/04/26 09:18:57;;;;;;;7.57;2.75;;;14.60;99.90;;;;;;5072299;28;20374;-81
2021/04/26 09:21:35;;;;;;;5.05;2.67;;;14.50;99.90;;;;;;5080356;28;20388;-79
2021/04/26 09:24:34;;;;;;;5.50;2.83;;;14.50;99.90;;;;;;5082362;28;20599;-80
2021/04/26 09:27:14;;;;;;;6.60;3.25;;;14.50;99.90;;;;;;5089464;28;20408;-80
2021/04/26 09:29:41;;;;;;;4.22;2.60;;;14.50;99.90;;;;;;5083309;28;20877;-80
2021/04/26 09:32:22;;;;;;;5.73;3.17;;;14.50;99.90;;;;;;5086561;28;20423;-80
2021/04/26 09:34:53;;;;;;;7.15;3.00;;;14.50;99.90;;;;;;5091186;28;20383;-79
2021/04/26 09:37:28;;;;;;;6.18;2.53;;;14.50;99.90;;;;;;5091197;28;20372;-79
2021/04/26 09:39:59;;;;;;;6.45;3.00;;;14.40;99.90;;;;;;5089968;28;20372;-80
2021/04/26 09:42:41;;;;;;;7.73;2.90;;;14.40;99.90;;;;;;5090616;28;20365;-80
2021/04/26 09:45:31;;;;;;;5.13;2.70;;;14.40;99.90;;;;;;5086160;28;20444;-79
2021/04/26 09:48:21;;;;;;;6.53;2.58;;;14.30;99.90;;;;;;5085194;28;20458;-79
2021/04/26 09:50:56;;;;;;;4.03;2.58;;;14.30;99.90;;;;;;5085793;28;20396;-78
2021/04/26 09:53:39;;;;;;;5.88;3.00;;;14.30;99.90;;;;;;5086104;28;20384;-79
2021/04/26 09:56:24;;;;;;;5.78;3.00;;;14.30;99.90;;;;;;5076538;28;20400;-80
2021/04/26 09:58:56;;;;;;;7.25;2.92;;;14.30;99.90;;;;;;5084115;28;20396;-79
2021/04/26 10:01:24;;;;;;;6.15;3.10;;;14.30;99.90;;;;;;5085548;28;20392;-79
2021/04/26 10:03:51;;;;;;;7.88;3.10;;;14.30;99.90;;;;;;5087746;28;20534;-79
2021/04/26 10:06:20;;;;;;;7.57;3.00;;;14.40;99.90;;;;;;5077874;28;20432;-79
2021/04/26 10:08:56;;;;;;;6.78;2.80;;;14.40;99.90;;;;;;5086543;28;20388;-79
2021/04/26 10:11:25;;;;;;;4.83;2.97;;;14.40;99.90;;;;;;5085659;28;20384;-79
2021/04/26 10:14:00;;;;;;;6.75;2.80;;;14.40;99.90;;;;;;5083440;28;20868;-79
2021/04/26 10:16:55;;;;;;;8.30;3.07;;;14.40;99.90;;;;;;5087808;28;20454;-80
2021/04/26 10:19:32;;;;;;;7.90;2.72;;;14.40;99.90;;;;;;5088006;28;20420;-79
2021/04/26 10:22:01;;;;;;;4.73;2.73;;;14.40;99.90;;;;;;5088134;28;20418;-78
2021/04/26 10:24:31;;;;;;;6.78;3.05;;;14.40;99.90;;;;;;5087208;28;20373;-79
2021/04/26 10:27:07;;;;;;;4.43;2.67;;;14.40;99.90;;;;;;5088068;28;20447;-79
2021/04/26 10:29:37;;;;;;;9.35;3.05;;;14.40;99.90;;;;;;5081643;28;20859;-78
2021/04/26 10:32:14;;;;;;;5.80;2.83;;;14.40;99.90;;;;;;5087555;28;20522;-78
2021/04/26 10:35:01;;;;;;;8.63;2.80;;;14.40;99.90;;;;;;5079360;28;20476;-78
2021/04/26 10:37:29;;;;;;;4.90;2.80;;;14.40;99.90;;;;;;5069406;28;20428;-78
2021/04/26 10:39:59;;;;;;;6.28;2.80;;;14.30;99.90;;;;;;5082718;28;20396;-79
2021/04/26 10:42:40;;;;;;;4.90;2.55;;;14.30;99.90;;;;;;5086522;28;20396;-78
2021/04/26 10:45:13;;;;;;;6.57;2.90;;;14.30;99.90;;;;;;5088175;28;20380;-80
2021/04/26 10:47:44;;;;;;;7.38;3.00;;;14.30;99.90;;;;;;5089486;28;20407;-79
2021/04/26 10:50:20;;;;;;;6.50;2.58;;;14.20;99.90;;;;;;5087702;28;20458;-78
2021/04/26 10:52:55;;;;;;;7.07;3.20;;;14.20;99.90;;;;;;5070692;28;20488;-79
2021/04/26 10:55:22;;;;;;;6.57;2.60;;;14.20;99.90;;;;;;5098103;28;20414;-80
2021/04/26 10:57:56;;;;;;;4.78;2.70;;;14.10;99.90;;;;;;5091416;28;20391;-81
2021/04/26 11:00:23;;;;;;;6.57;3.10;;;14.10;99.90;;;;;;5090761;28;20391;-80
2021/04/26 11:03:00;;;;;;;7.95;3.30;;;14.10;99.90;;;;;;5085563;28;20376;-80
2021/04/26 11:05:31;;;;;;;6.15;3.00;;;14.00;99.90;;;;;;5078716;28;20890;-79
2021/04/26 11:10:57;;;;;;;6.20;3.08;;;13.90;99.90;;;;;;5086450;28;21600;-80
2021/04/26 11:13:36;;;;;;;6.80;2.80;;;13.90;99.90;;;;;;5083587;28;20407;-80
2021/04/26 11:16:18;;;;;;;8.18;3.20;;;13.90;99.90;;;;;;5083742;28;20403;-81
2021/04/26 11:18:57;;;;;;;6.15;3.30;;;13.80;99.90;;;;;;5074439;28;20412;-79
2021/04/26 11:21:42;;;;;;;9.43;3.07;;;13.80;99.90;;;;;;5085608;28;20965;-80
2021/04/26 11:24:24;;;;;;;9.90;3.10;;;13.80;99.90;;;;;;5084752;28;20380;-80
2021/04/26 11:27:23;;;;;;;5.70;2.95;;;13.80;99.90;;;;;;5086385;28;20431;-78
2021/04/26 11:29:52;;;;;;;6.57;3.25;;;13.70;99.90;;;;;;5033190;28;20390;-79
2021/04/26 11:32:19;;;;;;;6.85;3.25;;;13.70;99.90;;;;;;5080658;28;20414;-79
2021/04/26 11:35:22;;;;;;;8.63;3.60;;;13.60;99.90;;;;;;5085027;28;20379;-78
2021/04/26 11:37:43;;;;;;;8.90;3.30;;;13.60;99.90;;;;;;5078596;28;21129;-78
2021/04/26 11:40:26;;;;;;;6.95;3.42;;;13.60;99.90;;;;;;5080697;28;20434;-78
2021/04/26 11:43:00;;;;;;;5.55;3.15;;;13.60;99.90;;;;;;5083840;28;20376;-78
2021/04/26 11:45:28;;;;;;;10.20;3.50;;;13.60;99.90;;;;;;5075174;28;20806;-78
2021/04/26 11:47:55;;;;;;;6.40;3.40;;;13.50;99.90;;;;;;5073985;28;20396;-78
2021/04/26 11:50:22;;;;;;;7.55;3.47;;;13.50;99.90;;;;;;5085298;28;20396;-78
2021/04/26 11:52:49;;;;;;;8.45;3.20;;;13.50;99.90;;;;;;5087924;28;20898;-79
2021/04/26 11:55:19;;;;;;;4.07;2.88;;;13.40;99.90;;;;;;5086530;28;20402;-78
2021/04/26 11:57:56;;;;;;;5.50;3.03;;;13.40;99.90;;;;;;5074754;28;20888;-78
2021/04/26 12:00:28;;;;;;;7.90;3.33;;;13.50;99.90;;;;;;5083200;28;20424;-78
2021/04/26 12:03:13;;;;;;;9.20;3.30;;;13.60;99.90;;;;;;5088919;28;20883;-78
2021/04/26 12:05:42;;;;;;;5.55;3.13;;;13.60;99.90;;;;;;5077980;28;20400;-79
2021/04/26 12:08:09;;;;;;;7.53;3.50;;;13.60;99.90;;;;;;5075425;28;20420;-78
2021/04/26 12:10:40;;;;;;;6.40;3.30;;;13.60;99.90;;;;;;5083885;28;20421;-77
2021/04/26 12:13:09;;;;;;;8.85;3.92;;;13.50;99.90;;;;;;5087703;28;20430;-80
2021/04/26 12:15:38;;;;;;;9.02;4.30;;;13.50;99.90;;;;;;5084610;28;20385;-78
2021/04/26 12:18:06;;;;;;;8.85;4.82;;;13.40;99.90;;;;;;5073234;28;20429;-78
2021/04/26 12:20:37;;;;;;;9.50;5.00;;;13.40;99.90;;;;;;5078166;28;20396;-79
2021/04/26 12:23:16;;;;;;;13.98;4.95;;;13.40;99.90;;;;;;5079288;28;20440;-79
2021/04/26 12:25:48;;;;;;;6.73;3.60;;;13.40;99.90;;;;;;5089851;28;20471;-80
2021/04/26 12:28:16;;;;;;;6.38;3.60;;;13.30;99.90;;;;;;5090468;28;20910;-79
2021/04/26 12:30:51;;;;;;;9.90;3.85;;;13.20;99.90;;;;;;5083254;28;20400;-79
2021/04/26 12:33:22;;;;;;;11.20;4.18;;;13.10;99.90;;;;;;5081883;28;20407;-79
2021/04/26 12:35:50;;;;;;;7.30;3.45;;;13.10;99.90;;;;;;5087812;28;20391;-79
2021/04/26 12:38:24;;;;;;;10.48;3.92;;;13.00;99.90;;;;;;5091947;28;20470;-79
2021/04/26 12:40:52;;;;;;;9.27;3.90;;;12.90;99.90;;;;;;5082823;28;20820;-79
2021/04/26 12:43:19;;;;;;;9.63;4.25;;;12.80;99.90;;;;;;5079176;28;20418;-79
2021/04/26 12:45:49;;;;;;;11.00;4.07;;;12.80;99.90;;;;;;5083113;28;20395;-79
2021/04/26 12:48:30;;;;;;;7.70;3.65;;;12.70;99.90;;;;;;5091754;28;20393;-79
2021/04/26 12:50:57;;;;;;;11.05;4.40;;;12.70;99.90;;;;;;5084844;28;20417;-79
2021/04/26 12:53:53;;;;;;;7.15;3.65;;;12.70;99.90;;;;;;5082493;28;20472;-78
2021/04/26 12:56:20;;;;;;;10.17;4.23;;;12.70;99.90;;;;;;5082273;28;20457;-79
2021/04/26 12:58:50;;;;;;;11.55;4.90;;;12.80;99.90;;;;;;5082657;28;20792;-78
2021/04/26 13:01:29;;;;;;;9.20;4.03;;;12.90;99.90;;;;;;5088475;28;20392;-78
2021/04/26 13:03:58;;;;;;;9.38;4.25;;;12.90;99.90;;;;;;5087715;28;20394;-79